Overview Statistics Trail Chart Weather Telemetry Raw packets
 

This is the latest recevied weather packets stored in our database for station/object KG5VSR. If no packets are shown the sender has not sent any weather packets the latest 10 day(s).

<< 3 4 5 6 7 8 9 >>
Time Temp. Humidity Pressure Rain* Wind** Luminosity Snow
1788457406 28.33° C 79% 1014.4 hPa 0 mm - 205 W/m² -
1788455606 28.33° C 82% 1014.4 hPa 0 mm - 93 W/m² -
1788453806 28.89° C 82% 1014.6 hPa 0 mm - 77 W/m² -
1788452003 28.33° C 85% 1014.2 hPa 0 mm - 95 W/m² -
1788450200 27.22° C 88% 1014.2 hPa 0 mm - 41 W/m² -
1788448397 27.22° C 89% 1014 hPa 0 mm - 35 W/m² -
1788446594 27.22° C 89% 1014.4 hPa 0 mm - 80 W/m² -
1788444792 26.67° C 90% 1014.2 hPa 0 mm - 87 W/m² -
1788442990 26.11° C 91% 1014.9 hPa 0 mm - 47 W/m² -
1788441185 26.11° C 91% 1014.1 hPa 0 mm - 25 W/m² -
1788439381 26.11° C 91% 1013.9 hPa 0 mm - 6 W/m² -
1788437579 26.11° C 90% 1013.9 hPa 0 mm - 1 W/m² -
1788435775 26.11° C 90% 1013.4 hPa 0 mm - 0 W/m² -
1788433974 25.56° C 90% 1013.6 hPa 0 mm - 0 W/m² -
1788432173 25.56° C 90% 1013.4 hPa 0 mm - 0 W/m² -
1788430372 25.56° C 90% 1013.4 hPa 0 mm - 0 W/m² -
1788428573 26.67° C 84% 1013.6 hPa 0 mm - 0 W/m² -
1788426769 26.67° C 83% 1013.2 hPa 0 mm - 0 W/m² -
1788424968 26.67° C 85% 1013.3 hPa 0 mm - 0 W/m² -
1788423166 26.67° C 86% 1013.1 hPa 0 mm - 0 W/m² -
1788421366 26.67° C 86% 1013 hPa 0 mm - 0 W/m² -
1788419564 26.67° C 86% 1013.3 hPa 0 mm - 0 W/m² -
1788417760 26.67° C 85% 1013.3 hPa 0 mm - 0 W/m² -
1788415959 26.67° C 84% 1013.2 hPa 0 mm - 0 W/m² -
1788414153 26.67° C 83% 1013.8 hPa 0 mm - 0 W/m² -

* Rain latest hour (hover to see other rain measurements)
** Current wind speed in m/s (hover to see current wind gust speed)